DFELB EDDE-EDDN
Flight info
| Callsign | DFELB |
|---|---|
| Flight time | 0h 35m |
| Altitude | 25000 |
| Route | PILAM1D PILAM DCT RATIP DCT DODAS DODAS1V |
| Aircraft | TBM9/L-SDFGRWY/S |
Departure
| Time | 2026-05-07 09:45 |
|---|---|
| Airport | Erfurt-Weimar Airport (EDDE) |
Arrival
| Time | 2026-05-07 10:20 |
|---|---|
| Airport | Nuremberg Airport (EDDN) |
| Time | Latitude | Longitude | Altitude | Speed | Heading |
|---|---|---|---|---|---|
| 2026-05-07 09:40 | 50.97719 | 10.96134 | 1021 ft | 0 kts | 172° |
| 2026-05-07 09:43 | 50.97714 | 10.96145 | 1021 ft | 6 kts | 88° |
| 2026-05-07 09:43 | 50.97731 | 10.96235 | 1021 ft | 11 kts | 48° |
| 2026-05-07 09:43 | 50.97809 | 10.96275 | 1021 ft | 13 kts | 9° |
| 2026-05-07 09:44 | 50.97832 | 10.96281 | 1021 ft | 0 kts | 8° |
| 2026-05-07 09:44 | 50.97838 | 10.96282 | 1021 ft | 6 kts | 5° |
| 2026-05-07 09:44 | 50.97906 | 10.96289 | 1020 ft | 12 kts | 3° |
| 2026-05-07 09:44 | 50.97943 | 10.96255 | 1020 ft | 0 kts | 270° |
| 2026-05-07 09:45 | 50.97966 | 10.96061 | 1020 ft | 54 kts | 278° |
| 2026-05-07 09:45 | 50.98027 | 10.95078 | 1156 ft | 109 kts | 278° |
| 2026-05-07 09:45 | 50.98089 | 10.93906 | 1854 ft | 112 kts | 273° |
| 2026-05-07 09:45 | 50.98093 | 10.92473 | 2272 ft | 145 kts | 275° |
| 2026-05-07 09:46 | 50.98176 | 10.90729 | 2733 ft | 171 kts | 277° |
| 2026-05-07 09:46 | 50.98274 | 10.88739 | 3189 ft | 188 kts | 275° |
| 2026-05-07 09:46 | 50.98322 | 10.86597 | 3626 ft | 199 kts | 270° |
| 2026-05-07 09:46 | 50.98333 | 10.84359 | 4060 ft | 206 kts | 272° |
| 2026-05-07 09:47 | 50.98359 | 10.82045 | 4487 ft | 211 kts | 271° |
| 2026-05-07 09:47 | 50.98378 | 10.79726 | 4904 ft | 214 kts | 271° |
| 2026-05-07 09:47 | 50.98394 | 10.77345 | 5316 ft | 217 kts | 271° |
| 2026-05-07 09:47 | 50.98411 | 10.74938 | 5725 ft | 219 kts | 270° |
| 2026-05-07 09:48 | 50.98428 | 10.72508 | 6140 ft | 221 kts | 270° |
| 2026-05-07 09:48 | 50.98444 | 10.70061 | 6544 ft | 222 kts | 270° |
| 2026-05-07 09:48 | 50.98348 | 10.67612 | 6922 ft | 223 kts | 256° |
| 2026-05-07 09:48 | 50.97750 | 10.65351 | 7297 ft | 224 kts | 238° |
| 2026-05-07 09:49 | 50.96732 | 10.63515 | 7682 ft | 224 kts | 219° |
| 2026-05-07 09:49 | 50.95381 | 10.62292 | 8080 ft | 225 kts | 200° |
| 2026-05-07 09:49 | 50.93857 | 10.61679 | 8483 ft | 226 kts | 193° |
| 2026-05-07 09:49 | 50.92319 | 10.61105 | 8900 ft | 228 kts | 194° |
| 2026-05-07 09:50 | 50.90772 | 10.60517 | 9327 ft | 229 kts | 194° |
| 2026-05-07 09:50 | 50.89219 | 10.59936 | 9751 ft | 229 kts | 194° |
| 2026-05-07 09:50 | 50.87662 | 10.59355 | 10147 ft | 230 kts | 194° |
| 2026-05-07 09:50 | 50.86101 | 10.58770 | 10535 ft | 230 kts | 194° |
| 2026-05-07 09:51 | 50.84539 | 10.58193 | 10926 ft | 231 kts | 192° |
| 2026-05-07 09:51 | 50.82929 | 10.58115 | 11303 ft | 234 kts | 173° |
| 2026-05-07 09:51 | 50.81326 | 10.58636 | 11705 ft | 236 kts | 168° |
| 2026-05-07 09:51 | 50.79716 | 10.59174 | 12114 ft | 237 kts | 169° |
| 2026-05-07 09:52 | 50.78096 | 10.59703 | 12529 ft | 238 kts | 169° |
| 2026-05-07 09:52 | 50.76486 | 10.60236 | 12942 ft | 239 kts | 169° |
| 2026-05-07 09:52 | 50.74852 | 10.60779 | 13368 ft | 240 kts | 169° |
| 2026-05-07 09:52 | 50.73210 | 10.61324 | 13792 ft | 242 kts | 168° |
| 2026-05-07 09:53 | 50.71559 | 10.61869 | 14176 ft | 243 kts | 169° |
| 2026-05-07 09:53 | 50.69902 | 10.62414 | 14565 ft | 244 kts | 169° |
| 2026-05-07 09:53 | 50.68238 | 10.62964 | 14926 ft | 246 kts | 169° |
| 2026-05-07 09:53 | 50.66512 | 10.63528 | 14949 ft | 260 kts | 169° |
| 2026-05-07 09:54 | 50.64703 | 10.64117 | 14955 ft | 269 kts | 169° |
| 2026-05-07 09:54 | 50.62870 | 10.64720 | 14963 ft | 275 kts | 169° |
| 2026-05-07 09:54 | 50.60980 | 10.65341 | 14960 ft | 279 kts | 169° |
| 2026-05-07 09:54 | 50.59071 | 10.65966 | 14961 ft | 281 kts | 169° |
| 2026-05-07 09:55 | 50.57178 | 10.66767 | 14941 ft | 282 kts | 157° |
| 2026-05-07 09:55 | 50.55497 | 10.68308 | 14942 ft | 283 kts | 147° |
| 2026-05-07 09:55 | 50.53880 | 10.70079 | 14943 ft | 283 kts | 146° |
| 2026-05-07 09:55 | 50.52264 | 10.71845 | 14946 ft | 283 kts | 147° |
| 2026-05-07 09:56 | 50.50588 | 10.73482 | 14948 ft | 283 kts | 150° |
| 2026-05-07 09:56 | 50.48900 | 10.75067 | 14949 ft | 283 kts | 149° |
| 2026-05-07 09:56 | 50.47221 | 10.76699 | 14941 ft | 283 kts | 149° |
| 2026-05-07 09:56 | 50.45573 | 10.78322 | 14942 ft | 282 kts | 149° |
| 2026-05-07 09:57 | 50.43903 | 10.79948 | 14945 ft | 282 kts | 149° |
| 2026-05-07 09:57 | 50.42231 | 10.81566 | 14944 ft | 282 kts | 149° |
| 2026-05-07 09:57 | 50.40554 | 10.83164 | 14942 ft | 282 kts | 151° |
| 2026-05-07 09:57 | 50.38816 | 10.84591 | 14945 ft | 281 kts | 154° |
| 2026-05-07 09:58 | 50.37073 | 10.86010 | 14940 ft | 282 kts | 153° |
| 2026-05-07 09:58 | 50.35360 | 10.87502 | 14944 ft | 282 kts | 152° |
| 2026-05-07 09:58 | 50.33649 | 10.88997 | 14944 ft | 282 kts | 152° |
| 2026-05-07 09:58 | 50.31926 | 10.90473 | 14942 ft | 281 kts | 153° |
| 2026-05-07 09:59 | 50.30229 | 10.91920 | 14946 ft | 281 kts | 152° |
| 2026-05-07 09:59 | 50.28489 | 10.93409 | 14672 ft | 289 kts | 152° |
| 2026-05-07 09:59 | 50.26697 | 10.94935 | 14336 ft | 295 kts | 153° |
| 2026-05-07 09:59 | 50.24884 | 10.96478 | 13997 ft | 298 kts | 152° |
| 2026-05-07 10:00 | 50.23058 | 10.98047 | 13645 ft | 300 kts | 152° |
| 2026-05-07 10:00 | 50.21229 | 10.99624 | 13268 ft | 300 kts | 152° |
| 2026-05-07 10:00 | 50.19418 | 11.01165 | 12896 ft | 299 kts | 153° |
| 2026-05-07 10:00 | 50.17593 | 11.02715 | 12524 ft | 298 kts | 153° |
| 2026-05-07 10:01 | 50.15776 | 11.04266 | 12160 ft | 296 kts | 153° |
| 2026-05-07 10:01 | 50.13975 | 11.05804 | 11799 ft | 295 kts | 153° |
| 2026-05-07 10:01 | 50.12174 | 11.07338 | 11440 ft | 293 kts | 153° |
| 2026-05-07 10:01 | 50.10408 | 11.08836 | 11093 ft | 291 kts | 153° |
| 2026-05-07 10:02 | 50.08648 | 11.10328 | 10959 ft | 283 kts | 153° |
| 2026-05-07 10:02 | 50.06938 | 11.11788 | 10953 ft | 277 kts | 154° |
| 2026-05-07 10:02 | 50.05260 | 11.13214 | 10951 ft | 272 kts | 154° |
| 2026-05-07 10:02 | 50.03737 | 11.14492 | 10951 ft | 270 kts | 154° |
| 2026-05-07 10:03 | 50.02064 | 11.15894 | 10683 ft | 277 kts | 154° |
| 2026-05-07 10:03 | 50.00339 | 11.17319 | 10315 ft | 283 kts | 154° |
| 2026-05-07 10:03 | 49.98589 | 11.18759 | 9945 ft | 284 kts | 155° |
| 2026-05-07 10:03 | 49.96873 | 11.20174 | 9560 ft | 282 kts | 154° |
| 2026-05-07 10:04 | 49.95145 | 11.21610 | 9161 ft | 280 kts | 154° |
| 2026-05-07 10:04 | 49.93431 | 11.23040 | 8767 ft | 279 kts | 154° |
| 2026-05-07 10:04 | 49.91711 | 11.24478 | 8375 ft | 279 kts | 154° |
| 2026-05-07 10:04 | 49.89996 | 11.25910 | 7974 ft | 279 kts | 154° |
| 2026-05-07 10:05 | 49.88309 | 11.27328 | 7608 ft | 278 kts | 154° |
| 2026-05-07 10:05 | 49.86606 | 11.28763 | 7226 ft | 278 kts | 154° |
| 2026-05-07 10:05 | 49.84916 | 11.30192 | 6970 ft | 273 kts | 154° |
| 2026-05-07 10:05 | 49.83276 | 11.31588 | 6962 ft | 264 kts | 154° |
| 2026-05-07 10:06 | 49.81683 | 11.32958 | 6854 ft | 260 kts | 154° |
| 2026-05-07 10:06 | 49.80096 | 11.34327 | 6557 ft | 257 kts | 154° |
| 2026-05-07 10:06 | 49.78592 | 11.35632 | 6249 ft | 246 kts | 154° |
| 2026-05-07 10:06 | 49.77117 | 11.36928 | 5936 ft | 241 kts | 154° |
| 2026-05-07 10:07 | 49.75663 | 11.38209 | 5617 ft | 238 kts | 154° |
| 2026-05-07 10:07 | 49.74230 | 11.39477 | 5305 ft | 236 kts | 154° |
| 2026-05-07 10:07 | 49.72822 | 11.40728 | 5007 ft | 235 kts | 154° |
| 2026-05-07 10:07 | 49.71429 | 11.41970 | 4969 ft | 226 kts | 154° |
| 2026-05-07 10:08 | 49.70090 | 11.43176 | 4968 ft | 221 kts | 154° |
| 2026-05-07 10:08 | 49.68774 | 11.44363 | 4966 ft | 219 kts | 154° |
| 2026-05-07 10:08 | 49.67462 | 11.45544 | 4967 ft | 218 kts | 154° |
| 2026-05-07 10:08 | 49.66149 | 11.46721 | 4965 ft | 218 kts | 154° |
| 2026-05-07 10:09 | 49.64851 | 11.47885 | 4976 ft | 219 kts | 154° |
| 2026-05-07 10:09 | 49.63524 | 11.49074 | 4971 ft | 222 kts | 154° |
| 2026-05-07 10:09 | 49.62180 | 11.50269 | 4965 ft | 223 kts | 154° |
| 2026-05-07 10:09 | 49.60835 | 11.51456 | 4964 ft | 222 kts | 154° |
| 2026-05-07 10:10 | 49.59497 | 11.52647 | 4961 ft | 220 kts | 154° |
| 2026-05-07 10:10 | 49.58191 | 11.53819 | 4961 ft | 218 kts | 154° |
| 2026-05-07 10:10 | 49.56860 | 11.55003 | 4773 ft | 224 kts | 154° |
| 2026-05-07 10:10 | 49.55436 | 11.56010 | 4522 ft | 225 kts | 172° |
| 2026-05-07 10:11 | 49.53923 | 11.55780 | 4281 ft | 219 kts | 205° |
| 2026-05-07 10:11 | 49.52580 | 11.54687 | 4044 ft | 218 kts | 216° |
| 2026-05-07 10:11 | 49.51439 | 11.53214 | 3987 ft | 210 kts | 228° |
| 2026-05-07 10:11 | 49.50489 | 11.51572 | 3991 ft | 207 kts | 232° |
| 2026-05-07 10:12 | 49.49555 | 11.49909 | 3990 ft | 194 kts | 231° |
| 2026-05-07 10:12 | 49.48761 | 11.48517 | 3977 ft | 162 kts | 232° |
| 2026-05-07 10:12 | 49.48013 | 11.47221 | 3969 ft | 160 kts | 231° |
| 2026-05-07 10:12 | 49.47301 | 11.45978 | 3992 ft | 153 kts | 231° |
| 2026-05-07 10:13 | 49.46660 | 11.44669 | 3992 ft | 152 kts | 250° |
| 2026-05-07 10:13 | 49.46514 | 11.43082 | 3990 ft | 148 kts | 271° |
| 2026-05-07 10:13 | 49.46599 | 11.41549 | 3985 ft | 144 kts | 275° |
| 2026-05-07 10:13 | 49.46720 | 11.40007 | 3987 ft | 146 kts | 277° |
| 2026-05-07 10:14 | 49.46860 | 11.38450 | 3987 ft | 147 kts | 277° |
| 2026-05-07 10:14 | 49.46999 | 11.36977 | 3974 ft | 127 kts | 278° |
| 2026-05-07 10:14 | 49.47133 | 11.35602 | 3984 ft | 135 kts | 277° |
| 2026-05-07 10:14 | 49.47281 | 11.34134 | 3988 ft | 141 kts | 278° |
| 2026-05-07 10:15 | 49.47426 | 11.32623 | 3995 ft | 144 kts | 277° |
| 2026-05-07 10:15 | 49.47579 | 11.31136 | 3966 ft | 127 kts | 278° |
| 2026-05-07 10:15 | 49.47695 | 11.29905 | 3810 ft | 111 kts | 277° |
| 2026-05-07 10:15 | 49.47810 | 11.28767 | 3670 ft | 105 kts | 277° |
| 2026-05-07 10:16 | 49.47915 | 11.27670 | 3535 ft | 102 kts | 278° |
| 2026-05-07 10:16 | 49.48023 | 11.26600 | 3399 ft | 100 kts | 277° |
| 2026-05-07 10:16 | 49.48122 | 11.25561 | 3267 ft | 97 kts | 277° |
| 2026-05-07 10:16 | 49.48190 | 11.24885 | 3178 ft | 96 kts | 278° |
| 2026-05-07 10:17 | 49.48324 | 11.23541 | 3005 ft | 96 kts | 277° |
| 2026-05-07 10:17 | 49.48423 | 11.22479 | 2877 ft | 106 kts | 277° |
| 2026-05-07 10:17 | 49.48500 | 11.21732 | 2776 ft | 108 kts | 277° |
| 2026-05-07 10:17 | 49.48615 | 11.20585 | 2626 ft | 109 kts | 277° |
| 2026-05-07 10:18 | 49.48726 | 11.19424 | 2475 ft | 110 kts | 278° |
| 2026-05-07 10:18 | 49.48880 | 11.17889 | 2270 ft | 110 kts | 277° |
| 2026-05-07 10:18 | 49.48955 | 11.17098 | 2153 ft | 111 kts | 278° |
| 2026-05-07 10:18 | 49.49073 | 11.15932 | 1976 ft | 109 kts | 278° |
| 2026-05-07 10:19 | 49.49182 | 11.14803 | 1812 ft | 108 kts | 278° |
| 2026-05-07 10:19 | 49.49299 | 11.13641 | 1644 ft | 111 kts | 278° |
| 2026-05-07 10:19 | 49.49411 | 11.12461 | 1485 ft | 113 kts | 277° |
| 2026-05-07 10:19 | 49.49531 | 11.11261 | 1323 ft | 112 kts | 276° |
| 2026-05-07 10:20 | 49.49633 | 11.10161 | 1183 ft | 96 kts | 275° |
| 2026-05-07 10:20 | 49.49723 | 11.09265 | 1047 ft | 65 kts | 275° |
| 2026-05-07 10:20 | 49.49757 | 11.08826 | 1035 ft | 32 kts | 279° |
| 2026-05-07 10:20 | 49.49768 | 11.08659 | 1033 ft | 22 kts | 273° |
| 2026-05-07 10:21 | 49.49705 | 11.08557 | 1031 ft | 13 kts | 206° |
| 2026-05-07 10:21 | 49.49690 | 11.08543 | 1031 ft | 0 kts | 219° |
| 2026-05-07 10:21 | 49.49667 | 11.08499 | 1030 ft | 21 kts | 234° |
| 2026-05-07 10:21 | 49.49582 | 11.08366 | 1027 ft | 9 kts | 174° |
| 2026-05-07 10:22 | 49.49537 | 11.08319 | 1024 ft | 13 kts | 258° |
| 2026-05-07 10:22 | 49.49546 | 11.08148 | 1023 ft | 18 kts | 278° |
| 2026-05-07 10:22 | 49.49562 | 11.07945 | 1022 ft | 20 kts | 277° |
| 2026-05-07 10:22 | 49.49586 | 11.07724 | 1021 ft | 22 kts | 278° |
| 2026-05-07 10:23 | 49.49611 | 11.07476 | 1020 ft | 24 kts | 281° |
| 2026-05-07 10:23 | 49.49634 | 11.07278 | 1020 ft | 12 kts | 278° |
| 2026-05-07 10:23 | 49.49588 | 11.07209 | 1021 ft | 8 kts | 191° |
| 2026-05-07 10:23 | 49.49521 | 11.07196 | 1021 ft | 11 kts | 171° |
| 2026-05-07 10:24 | 49.49492 | 11.07285 | 1021 ft | 8 kts | 96° |
| 2026-05-07 10:24 | 49.49514 | 11.07322 | 1021 ft | 3 kts | 82° |
| 2026-05-07 10:24 | 49.49507 | 11.07331 | 1021 ft | 0 kts | 196° |